Time;durP1;ratioP1;P1;durP2;ratioP2;P2;SDS_P1;SDS_P2;PMS_P1;PMS_P2;Temp;Humidity;BMP_temperature;BMP_pressure;BME280_temperature;BME280_humidity;BME280_pressure;Samples;Min_cycle;Max_cycle;Signal;HPM_P1;HPM_P2
2021/04/16 00:02:05;;;;;;;1999.90;999.90;;;4.60;98.80;;;;;;5094050;28;20093;-95
2021/04/16 00:04:32;;;;;;;1999.90;999.90;;;4.70;98.90;;;;;;5094732;28;20494;-96
2021/04/16 00:06:59;;;;;;;1999.90;999.90;;;4.60;98.90;;;;;;5095018;28;20090;-93
2021/04/16 00:09:28;;;;;;;1999.90;999.90;;;4.50;99.00;;;;;;5095545;28;20052;-96
2021/04/16 00:11:55;;;;;;;1999.90;999.90;;;4.50;99.00;;;;;;5077764;28;20049;-94
2021/04/16 00:14:24;;;;;;;1999.90;999.90;;;4.50;99.10;;;;;;5089718;28;20117;-94
2021/04/16 00:16:52;;;;;;;1999.90;999.90;;;4.50;99.10;;;;;;5094338;28;20052;-94
2021/04/16 00:19:19;;;;;;;1999.90;999.90;;;4.40;99.30;;;;;;5094517;28;20493;-93
2021/04/16 00:21:47;;;;;;;1999.90;999.90;;;4.40;99.30;;;;;;5074117;28;20045;-94
2021/04/16 00:24:14;;;;;;;1999.90;999.90;;;4.30;99.30;;;;;;5086898;28;20541;-94
2021/04/16 00:26:43;;;;;;;1999.90;999.90;;;4.30;99.50;;;;;;5094730;28;20082;-94
2021/04/16 00:29:10;;;;;;;1999.90;999.90;;;4.30;99.50;;;;;;5083771;28;20136;-95
2021/04/16 00:31:50;;;;;;;1999.90;999.90;;;4.20;99.90;;;;;;5074211;28;20056;-95
2021/04/16 00:34:19;;;;;;;1999.90;999.90;;;4.20;99.80;;;;;;5075814;28;20392;-95
2021/04/16 00:36:47;;;;;;;1999.90;999.90;;;4.20;99.90;;;;;;5074349;28;20078;-95
2021/04/16 00:39:15;;;;;;;1999.90;999.90;;;4.20;99.90;;;;;;5074037;28;20060;-95
2021/04/16 00:41:42;;;;;;;1999.90;999.90;;;4.10;99.90;;;;;;5073473;28;20137;-95
2021/04/16 00:44:10;;;;;;;1999.90;999.90;;;4.10;99.90;;;;;;5074010;28;20056;-94
2021/04/16 00:46:46;;;;;;;1999.90;999.90;;;4.10;99.90;;;;;;5075696;28;20072;-95
2021/04/16 00:49:18;;;;;;;1999.90;999.90;;;4.10;99.90;;;;;;5077335;28;20063;-95
2021/04/16 00:51:47;;;;;;;1999.90;999.90;;;4.10;99.90;;;;;;5091750;28;20062;-95
2021/04/16 00:54:18;;;;;;;1999.90;999.90;;;4.00;99.90;;;;;;5097955;28;20078;-94
2021/04/16 00:56:46;;;;;;;1999.90;999.90;;;4.00;99.90;;;;;;5097845;28;20052;-94
2021/04/16 00:59:15;;;;;;;1999.90;999.90;;;4.00;99.90;;;;;;5077614;28;20053;-94
2021/04/16 01:01:44;;;;;;;1999.90;999.90;;;4.00;99.90;;;;;;5077362;28;20076;-94
2021/04/16 01:04:14;;;;;;;1999.90;999.90;;;4.00;99.90;;;;;;5077423;28;20079;-94
2021/04/16 01:06:41;;;;;;;1999.90;999.90;;;4.00;99.90;;;;;;5077301;28;20048;-94
2021/04/16 01:09:10;;;;;;;1999.90;999.90;;;3.90;99.90;;;;;;5077522;28;20479;-95
2021/04/16 01:11:37;;;;;;;1999.90;999.90;;;3.90;99.90;;;;;;5077879;28;20082;-94
2021/04/16 01:14:05;;;;;;;1999.90;999.90;;;3.90;99.90;;;;;;5077606;28;20055;-95
2021/04/16 01:16:36;;;;;;;1999.90;999.90;;;3.90;99.90;;;;;;5077909;28;20515;-94
2021/04/16 01:19:08;;;;;;;1999.90;999.90;;;3.80;99.90;;;;;;5085088;28;20059;-94
2021/04/16 01:21:42;;;;;;;1999.90;999.90;;;3.80;99.90;;;;;;5087802;28;20041;-94
2021/04/16 01:24:22;;;;;;;1999.90;999.90;;;3.80;99.90;;;;;;5104034;28;20561;-94
2021/04/16 01:26:50;;;;;;;1999.90;999.90;;;3.80;99.90;;;;;;5091734;28;20048;-94
2021/04/16 01:29:17;;;;;;;1999.90;999.90;;;3.80;99.90;;;;;;5079289;28;20473;-95
2021/04/16 01:31:47;;;;;;;1999.90;999.90;;;3.80;99.90;;;;;;5078418;28;20044;-95
2021/04/16 01:34:17;;;;;;;1999.90;999.90;;;3.70;99.90;;;;;;5078025;28;20049;-94
2021/04/16 01:36:44;;;;;;;1999.90;999.90;;;3.80;99.90;;;;;;5076472;28;20417;-95
2021/04/16 01:39:11;;;;;;;1999.90;999.90;;;3.70;99.90;;;;;;5076873;28;20056;-94
2021/04/16 01:41:42;;;;;;;1999.90;999.90;;;3.70;99.90;;;;;;5092432;28;20048;-94
2021/04/16 01:44:13;;;;;;;1999.90;999.90;;;3.70;99.90;;;;;;5097850;28;20077;-94
2021/04/16 01:46:48;;;;;;;1999.90;999.90;;;3.70;99.90;;;;;;5097509;28;20121;-95
2021/04/16 01:49:16;;;;;;;1999.90;999.90;;;3.70;99.90;;;;;;5096653;28;20055;-94
2021/04/16 01:51:44;;;;;;;1999.90;999.90;;;3.70;99.90;;;;;;5096554;28;20110;-94
2021/04/16 01:54:20;;;;;;;1999.90;999.90;;;3.70;99.90;;;;;;5083425;28;20124;-94
2021/04/16 01:56:51;;;;;;;1999.90;999.90;;;3.70;99.90;;;;;;5096615;28;20055;-94
2021/04/16 01:59:20;;;;;;;1999.90;999.90;;;3.60;99.90;;;;;;5089443;28;20052;-94
2021/04/16 02:01:48;;;;;;;1999.90;999.90;;;3.60;99.90;;;;;;5089458;28;20055;-94
2021/04/16 02:04:18;;;;;;;1999.90;999.90;;;3.60;99.90;;;;;;5096201;28;20554;-94
2021/04/16 02:06:46;;;;;;;1999.90;999.90;;;3.70;99.90;;;;;;5096474;28;20048;-95
2021/04/16 02:09:15;;;;;;;1999.90;999.90;;;3.70;99.90;;;;;;5091917;28;20122;-94
2021/04/16 02:11:45;;;;;;;1999.90;999.90;;;3.60;99.90;;;;;;5083769;28;20097;-94
2021/04/16 02:14:16;;;;;;;1999.90;999.90;;;3.60;99.90;;;;;;5094853;28;20094;-94
2021/04/16 02:16:44;;;;;;;1999.90;999.90;;;3.60;99.90;;;;;;5076931;28;20133;-94
2021/04/16 02:19:13;;;;;;;1999.90;999.90;;;3.60;99.90;;;;;;5077463;28;20458;-95
2021/04/16 02:21:43;;;;;;;1999.90;999.90;;;3.60;99.90;;;;;;5083506;28;20067;-94
2021/04/16 02:24:11;;;;;;;1999.90;999.90;;;3.60;99.90;;;;;;5097555;28;20055;-95
2021/04/16 02:26:40;;;;;;;1999.90;999.90;;;3.60;99.90;;;;;;5076509;28;20549;-95
2021/04/16 02:29:09;;;;;;;1999.90;999.90;;;3.50;99.90;;;;;;5085952;28;20478;-95
2021/04/16 02:31:42;;;;;;;1999.90;999.90;;;3.50;99.90;;;;;;5097903;28;20044;-94
2021/04/16 02:34:11;;;;;;;1999.90;999.90;;;3.50;99.90;;;;;;5087722;28;20056;-95
2021/04/16 02:36:38;;;;;;;1999.90;999.90;;;3.50;99.90;;;;;;5077025;28;20076;-94
2021/04/16 02:39:07;;;;;;;1999.90;999.90;;;3.50;99.90;;;;;;5095357;28;20052;-94
2021/04/16 02:41:36;;;;;;;1999.90;999.90;;;3.50;99.90;;;;;;5095835;28;20128;-94
2021/04/16 02:44:04;;;;;;;1999.90;999.90;;;3.40;99.90;;;;;;5095898;28;20441;-95
2021/04/16 02:46:32;;;;;;;1999.90;999.90;;;3.50;99.90;;;;;;5095848;28;20048;-95
2021/04/16 02:49:00;;;;;;;1999.90;999.90;;;3.40;99.90;;;;;;5095455;28;20105;-94
2021/04/16 02:51:28;;;;;;;1999.90;999.90;;;3.40;99.90;;;;;;5095387;28;20518;-94
2021/04/16 02:53:55;;;;;;;1999.90;999.90;;;3.30;99.90;;;;;;5095883;28;20078;-94
2021/04/16 02:56:24;;;;;;;1999.90;999.90;;;3.30;99.90;;;;;;5096027;28;20109;-95
2021/04/16 02:58:51;;;;;;;1999.90;999.90;;;3.30;99.90;;;;;;5096418;28;20082;-95
2021/04/16 03:01:19;;;;;;;1999.90;999.90;;;3.30;99.90;;;;;;5104329;28;20048;-94
2021/04/16 03:03:46;;;;;;;1999.90;999.90;;;3.20;99.90;;;;;;5101212;28;20490;-91
2021/04/16 03:06:14;;;;;;;1999.90;999.90;;;3.20;99.90;;;;;;5095329;28;20134;-91
2021/04/16 03:08:41;;;;;;;1999.90;999.90;;;3.20;99.90;;;;;;5094302;28;20071;-91
2021/04/16 03:11:10;;;;;;;1999.90;999.90;;;3.20;99.90;;;;;;5095139;28;20048;-91
2021/04/16 03:13:38;;;;;;;1999.90;999.90;;;3.10;99.90;;;;;;5094790;28;20131;-91
2021/04/16 03:16:06;;;;;;;1999.90;999.90;;;3.10;99.90;;;;;;5091220;28;20048;-91
2021/04/16 03:18:33;;;;;;;1999.90;999.90;;;3.10;99.90;;;;;;5084637;28;20138;-91
2021/04/16 03:21:00;;;;;;;1999.90;999.90;;;3.10;99.90;;;;;;5094088;28;20095;-91
2021/04/16 03:23:28;;;;;;;1999.90;999.90;;;3.10;99.90;;;;;;5074441;28;20048;-91
2021/04/16 03:25:56;;;;;;;1999.90;999.90;;;3.00;99.90;;;;;;5074567;28;20052;-91
2021/04/16 03:28:23;;;;;;;1999.90;999.90;;;3.00;99.90;;;;;;5074607;28;20062;-91
2021/04/16 03:30:51;;;;;;;1999.90;999.90;;;3.00;99.90;;;;;;5083523;28;20070;-91
2021/04/16 03:33:18;;;;;;;1999.90;999.90;;;3.00;99.90;;;;;;5095260;28;20387;-91
2021/04/16 03:35:45;;;;;;;1999.90;999.90;;;2.90;99.90;;;;;;5080271;28;20052;-91
2021/04/16 03:38:13;;;;;;;1999.90;999.90;;;2.90;99.90;;;;;;5095220;28;20125;-90
2021/04/16 03:40:41;;;;;;;1999.90;999.90;;;2.90;99.90;;;;;;5090614;28;20044;-91
2021/04/16 03:43:09;;;;;;;1999.90;999.90;;;2.80;99.90;;;;;;5088694;28;20063;-91
2021/04/16 03:45:36;;;;;;;1999.90;999.90;;;2.80;99.90;;;;;;5097121;28;20052;-91
2021/04/16 03:48:06;;;;;;;1999.90;999.90;;;2.80;99.90;;;;;;5086969;28;20127;-91
2021/04/16 03:50:37;;;;;;;1999.90;999.90;;;2.80;99.90;;;;;;5093360;28;20056;-91
2021/04/16 03:53:08;;;;;;;1999.90;999.90;;;2.70;99.90;;;;;;5087209;28;20055;-92
2021/04/16 03:55:37;;;;;;;1999.90;999.90;;;2.70;99.90;;;;;;5091612;28;20063;-91
2021/04/16 03:58:05;;;;;;;1999.90;999.90;;;2.70;99.90;;;;;;5094275;28;20056;-92
2021/04/16 04:00:38;;;;;;;1999.90;999.90;;;2.60;99.90;;;;;;5095415;28;20056;-91
2021/04/16 04:03:07;;;;;;;1999.90;999.90;;;2.60;99.90;;;;;;5096929;28;20074;-91
2021/04/16 04:05:34;;;;;;;1999.90;999.90;;;2.60;99.90;;;;;;5097918;28;20055;-94
2021/04/16 04:08:02;;;;;;;1999.90;999.90;;;2.60;99.90;;;;;;5098524;28;20101;-94
2021/04/16 04:10:35;;;;;;;1999.90;999.90;;;2.50;99.90;;;;;;5097268;28;20114;-94
2021/04/16 04:13:05;;;;;;;1999.90;999.90;;;2.50;99.90;;;;;;5096818;28;20136;-94
2021/04/16 04:15:36;;;;;;;1999.90;999.90;;;2.50;99.90;;;;;;5098362;28;20055;-94
2021/04/16 04:18:11;;;;;;;1999.90;999.90;;;2.50;99.90;;;;;;5100231;28;20052;-95
2021/04/16 04:20:40;;;;;;;1999.90;999.90;;;2.50;99.90;;;;;;5099726;28;20074;-94
2021/04/16 04:23:08;;;;;;;1999.90;999.90;;;2.50;99.90;;;;;;5103436;28;20052;-94
2021/04/16 04:25:41;;;;;;;1999.90;999.90;;;2.40;99.90;;;;;;5102691;28;20112;-95
2021/04/16 04:28:09;;;;;;;1999.90;999.90;;;2.40;99.90;;;;;;5100756;28;20052;-94
2021/04/16 04:30:38;;;;;;;1999.90;999.90;;;2.40;99.90;;;;;;5098821;28;20546;-94
2021/04/16 04:33:07;;;;;;;1999.90;999.90;;;2.40;99.90;;;;;;5098399;28;20048;-94
2021/04/16 04:35:35;;;;;;;1999.90;999.90;;;2.30;99.90;;;;;;5098371;28;20056;-94
2021/04/16 04:38:03;;;;;;;1999.90;999.90;;;2.30;99.90;;;;;;5098306;28;20105;-95
2021/04/16 04:40:30;;;;;;;1999.90;999.90;;;2.30;99.90;;;;;;5078835;28;20055;-94
2021/04/16 04:42:57;;;;;;;1999.90;999.90;;;2.30;99.90;;;;;;5077054;28;20131;-94
2021/04/16 04:45:26;;;;;;;1999.90;999.90;;;2.20;99.90;;;;;;5077895;28;20136;-94
2021/04/16 04:47:54;;;;;;;1999.90;999.90;;;2.20;99.90;;;;;;5079459;28;20049;-94
2021/04/16 04:50:25;;;;;;;1999.90;999.90;;;2.20;99.90;;;;;;5097803;28;20055;-94
2021/04/16 04:52:53;;;;;;;1999.90;999.90;;;2.20;99.90;;;;;;5096971;28;20052;-94
2021/04/16 04:55:22;;;;;;;1999.90;999.90;;;2.20;99.90;;;;;;5077657;28;20129;-93
2021/04/16 04:57:49;;;;;;;1999.90;999.90;;;2.20;99.90;;;;;;5097874;28;20096;-94
2021/04/16 05:00:18;;;;;;;1999.90;999.90;;;2.20;99.90;;;;;;5097018;28;20060;-94
2021/04/16 05:02:46;;;;;;;1999.90;999.90;;;2.20;99.90;;;;;;5097043;28;20124;-94
2021/04/16 05:05:15;;;;;;;1999.90;999.90;;;2.20;99.90;;;;;;5097467;28;20139;-94
2021/04/16 05:07:42;;;;;;;1999.90;999.90;;;2.20;99.90;;;;;;5097044;28;20147;-94
2021/04/16 05:10:10;;;;;;;1999.90;999.90;;;2.20;99.90;;;;;;5080113;28;20076;-94
2021/04/16 05:12:38;;;;;;;1999.90;999.90;;;2.20;99.90;;;;;;5086680;28;20095;-94
2021/04/16 05:15:07;;;;;;;1999.90;999.90;;;2.20;99.90;;;;;;5098057;28;20051;-94
2021/04/16 05:17:34;;;;;;;1999.90;999.90;;;2.20;99.90;;;;;;5098179;28;20126;-94
2021/04/16 05:20:04;;;;;;;1999.90;999.90;;;2.20;99.90;;;;;;5089907;28;20044;-94
2021/04/16 05:22:31;;;;;;;1999.90;999.90;;;2.20;99.90;;;;;;5081954;28;20083;-94
2021/04/16 05:24:58;;;;;;;1999.90;999.90;;;2.30;99.90;;;;;;5089995;28;20517;-94
2021/04/16 05:27:25;;;;;;;1999.90;999.90;;;2.30;99.90;;;;;;5096811;28;20080;-94
2021/04/16 05:29:54;;;;;;;1999.90;999.90;;;2.30;99.90;;;;;;5097218;28;20076;-94
2021/04/16 05:32:21;;;;;;;1999.90;999.90;;;2.30;99.90;;;;;;5089011;28;20446;-94
2021/04/16 05:34:52;;;;;;;1999.90;999.90;;;2.30;99.90;;;;;;5094960;28;20071;-94
2021/04/16 05:37:20;;;;;;;1999.90;999.90;;;2.40;99.90;;;;;;5101070;28;20051;-94
2021/04/16 05:39:51;;;;;;;1999.90;999.90;;;2.40;99.90;;;;;;5097561;28;20089;-94
2021/04/16 05:42:21;;;;;;;1999.90;999.90;;;2.50;99.90;;;;;;5097334;28;20135;-94
2021/04/16 05:44:48;;;;;;;1999.90;999.90;;;2.60;99.90;;;;;;5088481;28;20056;-94
2021/04/16 05:47:15;;;;;;;1999.90;999.90;;;2.70;99.90;;;;;;5102563;28;20093;-93
2021/04/16 05:49:43;;;;;;;1999.90;999.90;;;2.80;99.90;;;;;;5098665;28;20056;-95
2021/04/16 05:52:11;;;;;;;1999.90;999.90;;;2.80;99.90;;;;;;5084072;28;20060;-95
2021/04/16 05:54:39;;;;;;;1999.90;999.90;;;2.90;99.90;;;;;;5098779;28;20106;-95
2021/04/16 05:57:08;;;;;;;1999.90;999.90;;;3.10;99.90;;;;;;5097657;28;20048;-94
2021/04/16 05:59:35;;;;;;;1999.90;999.90;;;3.20;99.90;;;;;;5083906;28;20053;-94
2021/04/16 06:02:23;;;;;;;1999.90;999.90;;;3.40;99.90;;;;;;5087705;28;20098;-94
2021/04/16 06:04:52;;;;;;;1999.90;999.90;;;3.50;99.90;;;;;;5097588;28;20479;-95
2021/04/16 06:07:23;;;;;;;1999.90;999.90;;;3.60;99.90;;;;;;5097345;28;20067;-94
2021/04/16 06:09:56;;;;;;;1999.90;999.90;;;3.70;99.90;;;;;;5097133;28;20135;-95
2021/04/16 06:12:24;;;;;;;1999.90;999.90;;;3.90;99.90;;;;;;5099520;28;20135;-95
2021/04/16 06:14:54;;;;;;;1999.90;999.90;;;4.00;99.90;;;;;;5097967;28;20509;-95
2021/04/16 06:17:21;;;;;;;1999.90;999.90;;;4.10;99.90;;;;;;5096019;28;20052;-95
2021/04/16 06:19:50;;;;;;;1999.90;999.90;;;4.20;99.90;;;;;;5096532;28;20485;-95
2021/04/16 06:22:19;;;;;;;1999.90;999.90;;;4.30;99.90;;;;;;5096037;28;20046;-96
2021/04/16 06:24:47;;;;;;;1999.90;999.90;;;4.40;99.90;;;;;;5092606;28;20048;-91
2021/04/16 06:27:15;;;;;;;1999.90;999.90;;;4.50;99.90;;;;;;5082458;28;20059;-90
2021/04/16 06:29:43;;;;;;;1999.90;999.90;;;4.70;99.90;;;;;;5095697;28;20044;-90
2021/04/16 06:32:12;;;;;;;1999.90;999.90;;;4.80;99.90;;;;;;5083355;28;20048;-90
2021/04/16 06:34:39;;;;;;;1999.90;999.90;;;4.90;99.90;;;;;;5099569;28;20056;-90
2021/04/16 06:37:08;;;;;;;1999.90;999.90;;;5.00;99.90;;;;;;5098975;28;20044;-91
2021/04/16 06:39:35;;;;;;;1999.90;999.90;;;5.10;99.90;;;;;;5109841;28;20134;-90
2021/04/16 06:42:07;;;;;;;1999.90;999.90;;;5.20;99.90;;;;;;5113232;28;20040;-90
2021/04/16 06:44:36;;;;;;;1999.90;999.90;;;5.30;99.90;;;;;;5111476;28;20119;-90
2021/04/16 06:47:07;;;;;;;1999.90;999.90;;;5.40;99.90;;;;;;5102250;28;20071;-90
2021/04/16 06:49:37;;;;;;;1999.90;999.90;;;5.40;99.90;;;;;;5083978;28;20056;-91
2021/04/16 06:52:09;;;;;;;1999.90;999.90;;;5.50;99.90;;;;;;5094582;28;20044;-91
2021/04/16 06:54:49;;;;;;;1999.90;999.90;;;5.60;99.90;;;;;;5091167;28;20398;-91
2021/04/16 06:57:23;;;;;;;1999.90;999.90;;;5.60;99.90;;;;;;5094256;28;20059;-91
2021/04/16 07:00:00;;;;;;;1999.90;999.90;;;5.70;99.90;;;;;;5093866;28;20048;-90
2021/04/16 07:02:38;;;;;;;1999.90;999.90;;;5.80;99.90;;;;;;5093788;28;20048;-91
2021/04/16 07:05:16;;;;;;;1999.90;999.90;;;5.90;99.90;;;;;;5093896;28;20052;-91
2021/04/16 07:07:48;;;;;;;1999.90;999.90;;;5.90;99.90;;;;;;5091193;28;20086;-91
2021/04/16 07:10:19;;;;;;;1999.90;999.90;;;6.00;99.90;;;;;;5089884;28;20055;-91
2021/04/16 07:12:55;;;;;;;1999.90;999.90;;;6.10;99.90;;;;;;5092629;28;20100;-90
2021/04/16 07:15:35;;;;;;;1999.90;999.90;;;6.10;99.90;;;;;;5081497;28;20044;-91
2021/04/16 07:18:13;;;;;;;1999.90;999.90;;;6.20;99.90;;;;;;5082719;28;20059;-90
2021/04/16 07:20:41;;;;;;;1999.90;999.90;;;6.30;99.90;;;;;;5088553;28;20297;-91
2021/04/16 07:23:09;;;;;;;1999.90;999.90;;;6.40;99.90;;;;;;5093285;28;20048;-90
2021/04/16 07:25:41;;;;;;;1999.90;999.90;;;6.40;99.90;;;;;;5093687;28;20776;-90
2021/04/16 07:28:11;;;;;;;1999.90;999.90;;;6.50;99.90;;;;;;5086580;28;20052;-91
2021/04/16 07:30:45;;;;;;;1999.90;999.90;;;6.50;99.90;;;;;;5093292;28;20067;-91
2021/04/16 07:33:26;;;;;;;1999.90;999.90;;;6.60;99.90;;;;;;5093334;28;20040;-91
2021/04/16 07:36:13;;;;;;;1999.90;999.90;;;6.60;99.90;;;;;;5093526;28;20135;-91
2021/04/16 07:38:43;;;;;;;1999.90;999.90;;;6.70;99.90;;;;;;5092440;28;20048;-91
2021/04/16 07:41:23;;;;;;;1999.90;999.90;;;6.80;99.90;;;;;;5092776;28;20491;-91
2021/04/16 07:43:52;;;;;;;1999.90;999.90;;;6.90;99.90;;;;;;5092523;28;20048;-91
2021/04/16 07:46:41;;;;;;;1999.90;999.90;;;6.90;99.90;;;;;;5090453;28;20145;-90
2021/04/16 07:49:25;;;;;;;1999.90;999.90;;;7.10;99.90;;;;;;5108161;28;20048;-91
2021/04/16 07:52:17;;;;;;;1999.90;999.90;;;7.00;99.90;;;;;;5103922;28;20044;-90
2021/04/16 07:55:04;;;;;;;1999.90;999.90;;;7.10;99.90;;;;;;5083421;28;20112;-90
2021/04/16 07:57:33;;;;;;;1999.90;999.90;;;7.20;99.90;;;;;;5095460;28;20594;-90
2021/04/16 08:00:06;;;;;;;1999.90;999.90;;;7.20;99.90;;;;;;5095805;28;20059;-90
2021/04/16 08:02:45;;;;;;;1999.90;999.90;;;7.30;99.90;;;;;;5095379;28;20055;-90
2021/04/16 08:05:14;;;;;;;1999.90;999.90;;;7.30;99.90;;;;;;5095855;28;20048;-90
2021/04/16 08:07:42;;;;;;;1999.90;999.90;;;7.30;99.90;;;;;;5094841;28;20058;-90
2021/04/16 08:10:16;;;;;;;1999.90;999.90;;;7.40;99.90;;;;;;5095253;28;20060;-90
2021/04/16 08:12:43;;;;;;;1999.90;999.90;;;7.40;99.90;;;;;;5078532;28;20049;-90
2021/04/16 08:15:16;;;;;;;1999.90;999.90;;;7.50;99.90;;;;;;5076842;28;20101;-90
2021/04/16 08:17:45;;;;;;;1999.90;999.90;;;7.50;99.90;;;;;;5090463;28;20052;-90
2021/04/16 08:20:25;;;;;;;1999.90;999.90;;;7.60;99.90;;;;;;5077586;28;20114;-90
2021/04/16 08:23:10;;;;;;;1999.90;999.90;;;7.60;99.90;;;;;;5093305;28;20051;-89
2021/04/16 08:26:09;;;;;;;1999.90;999.90;;;7.70;99.90;;;;;;5094994;28;20166;-90
2021/04/16 08:28:53;;;;;;;1999.90;999.90;;;7.70;99.90;;;;;;5094072;28;20105;-90
2021/04/16 08:31:28;;;;;;;1999.90;999.90;;;7.70;99.90;;;;;;5097537;28;20048;-90
2021/04/16 08:34:06;;;;;;;1999.90;999.90;;;7.70;99.90;;;;;;5094442;28;20074;-90
2021/04/16 08:37:00;;;;;;;1999.90;999.90;;;7.80;99.90;;;;;;5088688;28;20053;-89
2021/04/16 08:39:34;;;;;;;1999.90;999.90;;;7.90;99.90;;;;;;5082849;28;20056;-89
2021/04/16 08:42:07;;;;;;;1999.90;999.90;;;8.00;99.90;;;;;;5084218;28;20090;-89
2021/04/16 08:44:42;;;;;;;1999.90;999.90;;;8.00;99.90;;;;;;5096371;28;20138;-89
2021/04/16 08:47:23;;;;;;;1999.90;999.90;;;8.00;99.90;;;;;;5100196;28;20075;-90
2021/04/16 08:50:08;;;;;;;1999.90;999.90;;;8.00;99.90;;;;;;5085268;28;20141;-91
2021/04/16 08:52:45;;;;;;;1999.90;999.90;;;8.00;99.90;;;;;;5081704;28;20497;-91
2021/04/16 08:55:19;;;;;;;1999.90;999.90;;;8.10;99.90;;;;;;5085562;28;20107;-91
2021/04/16 08:57:51;;;;;;;;;;;8.20;99.90;;;;;;5090501;28;20043;-91
2021/04/16 09:00:23;;;;;;;1999.90;999.90;;;8.20;99.90;;;;;;5111074;28;19919;-91
2021/04/16 09:02:53;;;;;;;1999.90;999.90;;;8.30;99.70;;;;;;5098656;28;20044;-91
2021/04/16 09:05:26;;;;;;;1999.90;999.90;;;8.40;99.90;;;;;;5096318;28;20134;-90
2021/04/16 09:08:23;;;;;;;1999.90;999.90;;;8.50;99.90;;;;;;5105909;28;20072;-92
2021/04/16 09:10:52;;;;;;;1999.90;999.90;;;8.50;99.90;;;;;;5094062;28;20056;-91
2021/04/16 09:13:50;;;;;;;1999.90;999.90;;;8.50;99.90;;;;;;5093174;28;20048;-90
2021/04/16 09:16:55;;;;;;;1999.90;999.90;;;8.60;99.90;;;;;;5084345;28;20051;-90
2021/04/16 09:19:59;;;;;;;1999.90;999.90;;;8.70;99.90;;;;;;5087372;28;20056;-90
2021/04/16 09:22:35;;;;;;;1999.90;999.90;;;8.70;99.90;;;;;;5082002;28;20122;-92
2021/04/16 09:25:05;;;;;;;1999.90;999.90;;;8.80;99.90;;;;;;5093852;28;20047;-91
2021/04/16 09:27:38;;;;;;;1999.90;999.90;;;8.90;99.90;;;;;;5098043;28;20394;-91
2021/04/16 09:30:32;;;;;;;1999.90;999.90;;;9.00;99.90;;;;;;5097501;28;20138;-91
2021/04/16 09:33:17;;;;;;;1999.90;999.90;;;9.00;99.90;;;;;;5099576;28;20047;-92
2021/04/16 09:35:56;;;;;;;1999.90;999.90;;;9.10;99.90;;;;;;5086286;28;20044;-91
2021/04/16 09:38:34;;;;;;;1999.90;999.90;;;9.10;99.90;;;;;;5092147;28;20487;-91
2021/04/16 09:41:12;;;;;;;1999.90;999.90;;;9.10;99.90;;;;;;5096290;28;20477;-91
2021/04/16 09:43:40;;;;;;;1999.90;999.90;;;9.30;99.90;;;;;;5096278;28;20044;-91
2021/04/16 09:46:39;;;;;;;1999.90;999.90;;;9.30;99.90;;;;;;5090162;28;20457;-91
2021/04/16 09:49:10;;;;;;;1999.90;999.90;;;9.30;99.40;;;;;;5095571;28;20406;-91
2021/04/16 09:51:40;;;;;;;1999.90;999.90;;;9.40;98.90;;;;;;5096466;28;20072;-91
2021/04/16 09:54:36;;;;;;;1999.90;999.90;;;9.40;99.90;;;;;;5091752;28;20053;-91
2021/04/16 09:57:38;;;;;;;1999.90;999.90;;;9.50;99.50;;;;;;5088972;28;20052;-91
2021/04/16 10:00:43;;;;;;;1999.90;999.90;;;9.60;99.40;;;;;;5093047;28;20052;-91
2021/04/16 10:03:42;;;;;;;1999.90;999.90;;;9.70;99.10;;;;;;5083046;28;20447;-91
2021/04/16 10:06:31;;;;;;;1999.90;999.90;;;9.90;98.50;;;;;;5081816;28;20059;-91
2021/04/16 10:09:25;;;;;;;1999.90;999.90;;;9.90;97.40;;;;;;5084364;28;20502;-91
2021/04/16 10:11:56;;;;;;;1999.90;999.90;;;10.00;98.90;;;;;;5087626;28;20048;-92
2021/04/16 10:14:30;;;;;;;1999.90;999.90;;;10.00;99.20;;;;;;5083949;28;20048;-92
2021/04/16 10:17:01;;;;;;;1999.90;999.90;;;10.20;99.40;;;;;;5097045;28;20067;-91
2021/04/16 10:19:31;;;;;;;1999.90;999.90;;;10.30;99.00;;;;;;5096503;28;20052;-92
2021/04/16 10:22:08;;;;;;;1999.90;999.90;;;10.30;98.60;;;;;;5087590;28;20044;-92
2021/04/16 12:38:15;;;;;;;1999.90;999.90;;;13.30;68.10;;;;;;5094956;28;20052;-93
2021/04/16 12:40:42;;;;;;;1999.90;999.90;;;13.40;68.50;;;;;;5094203;28;20079;-92
2021/04/16 12:43:10;;;;;;;1999.90;999.90;;;13.50;66.50;;;;;;5096192;28;20078;-93
2021/04/16 12:45:37;;;;;;;1999.90;999.90;;;13.50;65.80;;;;;;5097895;28;20048;-93
2021/04/16 12:48:05;;;;;;;1999.90;999.90;;;13.60;68.10;;;;;;5097608;28;20072;-92
2021/04/16 12:50:33;;;;;;;1999.90;999.90;;;13.70;67.90;;;;;;5098240;28;20052;-92
2021/04/16 12:53:01;;;;;;;1999.90;999.90;;;13.90;66.20;;;;;;5097891;28;20459;-93
2021/04/16 12:55:29;;;;;;;1999.90;999.90;;;14.00;66.10;;;;;;5098388;28;20052;-93
2021/04/16 12:58:00;;;;;;;1999.90;999.90;;;14.10;66.80;;;;;;5097456;28;20084;-93
2021/04/16 13:00:31;;;;;;;1999.90;999.90;;;14.20;62.60;;;;;;5097584;28;20494;-92
2021/04/16 13:03:01;;;;;;;1999.90;999.90;;;14.10;62.60;;;;;;5098028;28;20478;-93
2021/04/16 13:05:29;;;;;;;1999.90;999.90;;;14.10;63.30;;;;;;5099449;28;20074;-93
2021/04/16 13:07:56;;;;;;;1999.90;999.90;;;14.10;64.20;;;;;;5101729;28;20056;-93
2021/04/16 13:10:24;;;;;;;1999.90;999.90;;;14.30;64.20;;;;;;5101630;28;20470;-92
2021/04/16 13:12:51;;;;;;;1999.90;999.90;;;14.40;63.20;;;;;;5104426;28;20052;-93
2021/04/16 13:15:21;;;;;;;1999.90;999.90;;;14.60;67.60;;;;;;5103235;28;20052;-93
2021/04/16 13:17:52;;;;;;;1999.90;999.90;;;14.80;65.80;;;;;;5100956;28;20067;-92
2021/04/16 13:20:21;;;;;;;1999.90;999.90;;;14.90;63.20;;;;;;5097789;28;20051;-93
2021/04/16 13:22:48;;;;;;;1999.90;999.90;;;14.90;63.10;;;;;;5097231;28;20135;-93
2021/04/16 13:25:20;;;;;;;1999.90;999.90;;;14.90;64.10;;;;;;5097502;28;20051;-93
2021/04/16 13:27:47;;;;;;;1999.90;999.90;;;14.90;65.90;;;;;;5097158;28;20467;-93
2021/04/16 13:30:16;;;;;;;1999.90;999.90;;;15.20;67.20;;;;;;5097262;28;20663;-92
2021/04/16 13:32:45;;;;;;;1999.90;999.90;;;15.20;64.00;;;;;;5098220;28;20052;-93
2021/04/16 13:35:17;;;;;;;1999.90;999.90;;;15.30;63.10;;;;;;5099433;28;20051;-94
2021/04/16 13:37:44;;;;;;;1999.90;999.90;;;15.30;62.20;;;;;;5109161;28;20113;-93
2021/04/16 13:40:15;;;;;;;1999.90;999.90;;;15.40;64.30;;;;;;5103880;28;20044;-92
2021/04/16 13:42:43;;;;;;;1999.90;999.90;;;15.60;63.30;;;;;;5103133;28;20044;-93
2021/04/16 13:45:11;;;;;;;1999.90;999.90;;;15.60;62.30;;;;;;5102813;28;20048;-93
2021/04/16 13:47:42;;;;;;;1999.90;999.90;;;15.70;63.70;;;;;;5097565;28;20048;-93
2021/04/16 13:50:13;;;;;;;1999.90;999.90;;;15.70;62.10;;;;;;5096991;28;20136;-93
2021/04/16 13:52:42;;;;;;;1999.90;999.90;;;15.50;60.50;;;;;;5096732;28;20474;-93
2021/04/16 13:55:12;;;;;;;1999.90;999.90;;;15.40;60.80;;;;;;5096188;28;20051;-93
2021/04/16 13:57:39;;;;;;;1999.90;999.90;;;15.40;62.20;;;;;;5096482;28;20398;-93
2021/04/16 14:00:09;;;;;;;1999.90;999.90;;;15.30;64.00;;;;;;5096656;28;20399;-93
2021/04/16 14:02:44;;;;;;;1999.90;999.90;;;15.50;66.30;;;;;;5096300;28;20479;-92
2021/04/16 14:05:15;;;;;;;1999.90;999.90;;;15.60;62.80;;;;;;5096467;28;20058;-92
2021/04/16 14:07:44;;;;;;;1999.90;999.90;;;15.70;62.90;;;;;;5097040;28;20105;-93
2021/04/16 14:10:16;;;;;;;1999.90;999.90;;;15.70;62.40;;;;;;5099227;28;20052;-96
2021/04/16 14:12:47;;;;;;;1999.90;999.90;;;15.90;63.20;;;;;;5105314;28;20075;-96
2021/04/16 14:15:16;;;;;;;1999.90;999.90;;;16.00;62.60;;;;;;5104479;28;20059;-96
2021/04/16 14:17:47;;;;;;;1999.90;999.90;;;16.10;63.90;;;;;;5106027;28;20048;-96
2021/04/16 14:20:29;;;;;;;1999.90;999.90;;;16.10;63.90;;;;;;5103256;28;20056;-93
2021/04/16 14:22:59;;;;;;;1999.90;999.90;;;16.20;64.00;;;;;;5095844;28;20040;-93
2021/04/16 14:25:28;;;;;;;1999.90;999.90;;;16.30;64.90;;;;;;5096230;28;20101;-92
2021/04/16 14:27:56;;;;;;;1999.90;999.90;;;16.30;63.20;;;;;;5100739;28;20048;-96
2021/04/16 14:30:28;;;;;;;1999.90;999.90;;;16.60;63.60;;;;;;5102771;28;20059;-96
2021/04/16 14:32:58;;;;;;;1999.90;999.90;;;16.80;63.60;;;;;;5100401;28;20074;-96
2021/04/16 14:35:29;;;;;;;1999.90;999.90;;;16.70;59.80;;;;;;5099810;28;20135;-96
2021/04/16 14:38:01;;;;;;;1999.90;999.90;;;16.60;61.30;;;;;;5097257;28;20056;-92
2021/04/16 14:40:28;;;;;;;1999.90;999.90;;;16.30;60.10;;;;;;5094601;28;20052;-91
2021/04/16 14:42:56;;;;;;;1999.90;999.90;;;16.30;60.80;;;;;;5091695;28;20531;-91